createdAt,value
2023-01-26T00:01:48.731Z,1.03
2023-01-26T00:04:17.006Z,1.03
2023-01-26T00:06:45.164Z,1.02
2023-01-26T00:09:14.599Z,1.01
2023-01-26T00:11:42.995Z,1.03
2023-01-26T00:14:11.309Z,1.03
2023-01-26T00:16:39.729Z,1.03
2023-01-26T00:19:07.704Z,1.01
2023-01-26T00:21:36.380Z,0.98
2023-01-26T00:24:04.754Z,0.99
2023-01-26T00:26:33.872Z,0.99
2023-01-26T00:29:02.330Z,1.02
2023-01-26T00:31:30.553Z,1.04
2023-01-26T00:34:00.716Z,1.04
2023-01-26T00:36:29.137Z,1.04
2023-01-26T00:38:57.584Z,1.05
2023-01-26T00:41:44.348Z,1.04
2023-01-26T00:44:12.772Z,1.02
2023-01-26T00:46:41.135Z,1.01
2023-01-26T00:49:10.821Z,1.02
2023-01-26T00:51:39.077Z,1.04
2023-01-26T00:54:07.053Z,1.04
2023-01-26T00:56:36.036Z,1.06
2023-01-26T00:59:04.288Z,1.07
2023-01-26T01:01:32.587Z,1.09
2023-01-26T01:04:01.752Z,1.11
2023-01-26T01:06:30.327Z,1.11
2023-01-26T01:08:58.352Z,1.12
2023-01-26T01:11:26.419Z,1.12
2023-01-26T01:13:54.546Z,1.13
2023-01-26T01:16:22.812Z,1.12
2023-01-26T01:18:55.103Z,1.11
2023-01-26T01:21:23.797Z,1.10
2023-01-26T01:23:52.115Z,1.06
2023-01-26T01:26:20.357Z,1.02
2023-01-26T01:28:48.603Z,0.99
2023-01-26T01:31:17.036Z,0.98
2023-01-26T01:33:45.124Z,0.99
2023-01-26T01:36:15.378Z,0.99
2023-01-26T01:38:44.346Z,0.97
2023-01-26T01:41:17.353Z,0.99
2023-01-26T01:43:45.637Z,1.01
2023-01-26T01:46:35.915Z,1.05
2023-01-26T01:49:17.935Z,1.06
2023-01-26T01:52:11.313Z,1.01
2023-01-26T01:54:48.965Z,0.91
2023-01-26T01:57:28.015Z,0.85
2023-01-26T02:00:00.765Z,0.84
2023-01-26T02:02:29.153Z,0.82
2023-01-26T02:04:58.036Z,0.77
2023-01-26T02:07:30.543Z,0.75
2023-01-26T02:10:17.741Z,0.74
2023-01-26T02:12:51.256Z,0.73
2023-01-26T02:15:19.295Z,0.71
2023-01-26T02:17:47.497Z,0.72
2023-01-26T02:20:43.321Z,0.71
2023-01-26T02:23:14.554Z,0.70
2023-01-26T02:25:53.082Z,0.66
2023-01-26T02:28:22.510Z,0.56
2023-01-26T02:30:50.871Z,0.45
2023-01-26T02:33:22.516Z,0.31
2023-01-26T02:35:51.032Z,0.12
2023-01-26T02:38:20.383Z,-0.09
2023-01-26T02:40:55.159Z,-0.26
2023-01-26T02:43:24.628Z,-0.34
2023-01-26T02:45:52.839Z,-0.39
2023-01-26T02:48:39.668Z,-0.43
2023-01-26T02:51:08.275Z,-0.48
2023-01-26T02:53:36.303Z,-0.53
2023-01-26T02:56:05.126Z,-0.56
2023-01-26T02:58:35.184Z,-0.55
2023-01-26T03:01:03.570Z,-0.53
2023-01-26T03:03:45.228Z,-0.48
2023-01-26T03:06:15.399Z,-0.46
2023-01-26T03:08:43.706Z,-0.40
2023-01-26T03:11:11.734Z,-0.30
2023-01-26T03:13:40.161Z,-0.20
2023-01-26T03:16:10.386Z,-0.10
2023-01-26T03:18:57.649Z,-0.04
2023-01-26T03:21:44.831Z,-0.03
2023-01-26T03:24:33.343Z,-0.02
2023-01-26T03:27:21.450Z,0.02
2023-01-26T03:29:49.621Z,0.04
2023-01-26T03:32:19.024Z,0.05
2023-01-26T03:34:48.168Z,0.02
2023-01-26T03:37:16.267Z,-0.01
2023-01-26T03:40:14.097Z,-0.01
2023-01-26T03:43:01.795Z,0.03
2023-01-26T03:45:49.425Z,0.07
2023-01-26T03:48:36.544Z,0.06
2023-01-26T03:51:24.815Z,-0.05
2023-01-26T03:54:11.931Z,-0.17
2023-01-26T03:56:40.569Z,-0.27
2023-01-26T03:59:16.000Z,-0.30
2023-01-26T04:02:04.893Z,-0.28
2023-01-26T04:04:53.596Z,-0.24
2023-01-26T04:07:44.691Z,-0.21
2023-01-26T04:10:13.432Z,-0.18
2023-01-26T04:12:42.022Z,-0.15
2023-01-26T04:15:34.956Z,-0.09
2023-01-26T04:18:28.123Z,-0.04
2023-01-26T04:21:15.908Z,-0.01
2023-01-26T04:23:45.493Z,0.00
2023-01-26T04:26:13.860Z,-0.02
2023-01-26T04:28:42.658Z,-0.04
2023-01-26T04:31:11.232Z,-0.08
2023-01-26T04:33:40.067Z,-0.11
2023-01-26T04:36:08.843Z,-0.09
2023-01-26T04:38:40.409Z,-0.09
2023-01-26T04:41:08.946Z,-0.12
2023-01-26T04:43:43.957Z,-0.18
2023-01-26T04:46:12.000Z,-0.20
2023-01-26T04:48:41.451Z,-0.14
2023-01-26T04:51:14.929Z,-0.13
2023-01-26T04:53:43.338Z,-0.16
2023-01-26T04:56:25.020Z,-0.18
2023-01-26T04:58:54.442Z,-0.21
2023-01-26T05:01:23.580Z,-0.19
2023-01-26T05:03:52.738Z,-0.11
2023-01-26T05:06:21.309Z,-0.05
2023-01-26T05:08:50.985Z,-0.02
2023-01-26T05:11:19.332Z,-0.02
2023-01-26T05:14:02.023Z,-0.06
2023-01-26T05:16:57.849Z,-0.13
2023-01-26T05:19:43.095Z,-0.16
2023-01-26T05:22:34.309Z,-0.19
2023-01-26T05:25:22.246Z,-0.19
2023-01-26T05:28:04.944Z,-0.19
2023-01-26T05:30:33.124Z,-0.21
2023-01-26T05:33:06.182Z,-0.17
2023-01-26T05:35:35.445Z,-0.15
2023-01-26T05:38:04.670Z,-0.20
2023-01-26T05:40:34.327Z,-0.26
2023-01-26T05:43:02.706Z,-0.31
2023-01-26T05:45:59.491Z,-0.31
2023-01-26T05:48:27.695Z,-0.32
2023-01-26T05:50:57.813Z,-0.32
2023-01-26T05:53:26.868Z,-0.32
2023-01-26T05:55:55.324Z,-0.33
2023-01-26T05:58:25.623Z,-0.30
2023-01-26T06:00:54.446Z,-0.28
2023-01-26T06:03:25.709Z,-0.30
2023-01-26T06:05:54.916Z,-0.37
2023-01-26T06:08:32.268Z,-0.43
2023-01-26T06:11:20.606Z,-0.46
2023-01-26T06:14:06.612Z,-0.45
2023-01-26T06:16:35.005Z,-0.48
2023-01-26T06:19:03.453Z,-0.50
2023-01-26T06:21:33.074Z,-0.53
2023-01-26T06:24:01.306Z,-0.54
2023-01-26T06:26:29.720Z,-0.51
2023-01-26T06:28:58.805Z,-0.47
2023-01-26T06:31:29.867Z,-0.44
2023-01-26T06:34:00.283Z,-0.40
2023-01-26T06:36:29.056Z,-0.35
2023-01-26T06:39:00.458Z,-0.29
2023-01-26T06:41:29.623Z,-0.28
2023-01-26T06:43:57.892Z,-0.29
2023-01-26T06:46:26.490Z,-0.30
2023-01-26T06:48:56.119Z,-0.37
2023-01-26T06:51:52.552Z,-0.47
2023-01-26T06:54:21.311Z,-0.55
2023-01-26T06:57:11.871Z,-0.57
2023-01-26T06:59:40.848Z,-0.60
2023-01-26T07:02:26.236Z,-0.66
2023-01-26T07:04:54.318Z,-0.71
2023-01-26T07:07:24.681Z,-0.75
2023-01-26T07:10:13.018Z,-0.77
2023-01-26T07:12:42.688Z,-0.80
2023-01-26T07:15:11.621Z,-0.80
2023-01-26T07:17:40.717Z,-0.79
2023-01-26T07:20:10.485Z,-0.80
2023-01-26T07:22:38.877Z,-0.78
2023-01-26T07:25:09.234Z,-0.78
2023-01-26T07:27:37.622Z,-0.78
2023-01-26T07:30:06.855Z,-0.72
2023-01-26T07:32:34.873Z,-0.68
2023-01-26T07:35:03.040Z,-0.75
2023-01-26T07:37:31.362Z,-0.76
2023-01-26T07:40:02.573Z,-0.69
2023-01-26T07:42:31.255Z,-0.63
2023-01-26T07:45:09.173Z,-0.62
2023-01-26T07:47:41.224Z,-0.71
2023-01-26T07:50:11.639Z,-0.78
2023-01-26T07:52:40.443Z,-0.80
2023-01-26T07:55:08.537Z,-0.83
2023-01-26T07:57:36.625Z,-0.79
2023-01-26T08:00:05.457Z,-0.78
2023-01-26T08:02:39.959Z,-0.77
2023-01-26T08:05:09.021Z,-0.77
2023-01-26T08:07:37.256Z,-0.79
2023-01-26T08:10:06.084Z,-0.77
2023-01-26T08:12:40.836Z,-0.71
2023-01-26T08:15:10.947Z,-0.66
2023-01-26T08:17:39.943Z,-0.67
2023-01-26T08:20:09.861Z,-0.68
2023-01-26T08:22:39.109Z,-0.71
2023-01-26T08:25:08.252Z,-0.75
2023-01-26T08:27:36.378Z,-0.78
2023-01-26T08:30:05.182Z,-0.87
2023-01-26T08:32:33.956Z,-0.95
2023-01-26T08:35:02.146Z,-0.95
2023-01-26T08:37:30.543Z,-0.94
2023-01-26T08:39:58.678Z,-0.87
2023-01-26T08:42:26.799Z,-0.83
2023-01-26T08:44:55.021Z,-0.82
2023-01-26T08:47:23.813Z,-0.81
2023-01-26T08:49:52.000Z,-0.83
2023-01-26T08:52:21.617Z,-0.83
2023-01-26T08:54:49.728Z,-0.84
2023-01-26T08:57:17.945Z,-0.86
2023-01-26T08:59:46.320Z,-0.90
2023-01-26T09:02:14.653Z,-0.94
2023-01-26T09:04:43.189Z,-0.92
2023-01-26T09:07:13.410Z,-0.97
2023-01-26T09:09:41.676Z,-1.05
2023-01-26T09:12:09.752Z,-1.04
2023-01-26T09:14:39.277Z,-0.95
2023-01-26T09:17:07.492Z,-0.87
2023-01-26T09:19:35.883Z,-0.81
2023-01-26T09:22:04.063Z,-0.81
2023-01-26T09:24:32.285Z,-0.85
2023-01-26T09:27:00.761Z,-0.87
2023-01-26T09:29:29.127Z,-0.85
2023-01-26T09:31:57.275Z,-0.83
2023-01-26T09:34:25.571Z,-0.79
2023-01-26T09:36:53.763Z,-0.77
2023-01-26T09:39:21.857Z,-0.76
2023-01-26T09:41:56.536Z,-0.72
2023-01-26T09:44:25.946Z,-0.65
2023-01-26T09:47:08.552Z,-0.65
2023-01-26T09:49:45.192Z,-0.69
2023-01-26T09:52:31.096Z,-0.69
2023-01-26T09:55:02.796Z,-0.66
2023-01-26T09:57:42.604Z,-0.70
2023-01-26T10:00:21.844Z,-0.78
2023-01-26T10:03:20.915Z,-0.81
2023-01-26T10:05:54.044Z,-0.78
2023-01-26T10:08:42.385Z,-0.77
2023-01-26T10:11:46.457Z,-0.78
2023-01-26T10:14:42.616Z,-0.73
2023-01-26T10:17:32.189Z,-0.70
2023-01-26T10:20:39.619Z,-0.67
2023-01-26T10:23:12.908Z,-0.61
2023-01-26T10:25:41.974Z,-0.56
2023-01-26T10:28:14.388Z,-0.51
2023-01-26T10:30:44.731Z,-0.49
2023-01-26T10:33:19.356Z,-0.50
2023-01-26T10:35:47.869Z,-0.51
2023-01-26T10:38:34.466Z,-0.56
2023-01-26T10:41:18.752Z,-0.61
2023-01-26T10:44:01.566Z,-0.60
2023-01-26T10:46:36.545Z,-0.63
2023-01-26T10:49:20.037Z,-0.63
2023-01-26T10:52:09.404Z,-0.60
2023-01-26T10:54:39.835Z,-0.55
2023-01-26T10:57:16.860Z,-0.50
2023-01-26T10:59:56.268Z,-0.39
2023-01-26T11:02:28.044Z,-0.34
2023-01-26T11:05:08.281Z,-0.38
2023-01-26T11:07:40.429Z,-0.43
2023-01-26T11:10:19.312Z,-0.52
2023-01-26T11:12:48.485Z,-0.60
2023-01-26T11:15:17.034Z,-0.61
2023-01-26T11:17:51.562Z,-0.59
2023-01-26T11:20:52.110Z,-0.56
2023-01-26T11:23:42.717Z,-0.51
2023-01-26T11:26:26.771Z,-0.52
2023-01-26T11:29:19.129Z,-0.51
2023-01-26T11:32:08.011Z,-0.47
2023-01-26T11:34:57.097Z,-0.48
2023-01-26T11:37:54.053Z,-0.46
2023-01-26T11:40:31.130Z,-0.43
2023-01-26T11:43:07.064Z,-0.43
2023-01-26T11:45:40.655Z,-0.41
2023-01-26T11:48:29.919Z,-0.39
2023-01-26T11:51:04.749Z,-0.38
2023-01-26T11:53:55.221Z,-0.34
2023-01-26T11:56:48.899Z,-0.30
2023-01-26T11:59:22.779Z,-0.29
2023-01-26T12:02:04.215Z,-0.29
2023-01-26T12:04:35.794Z,-0.27
2023-01-26T14:05:20.962Z,-0.71
2023-01-26T14:07:47.968Z,-0.71
2023-01-26T14:10:17.642Z,-0.66
2023-01-26T14:12:56.639Z,-0.65
2023-01-26T14:15:30.069Z,-0.68
2023-01-26T14:17:58.595Z,-0.72
2023-01-26T14:20:28.669Z,-0.70
2023-01-26T14:23:03.424Z,-0.67
2023-01-26T14:25:30.214Z,-0.67
2023-01-26T14:27:56.704Z,-0.68
2023-01-26T14:30:29.198Z,-0.75
2023-01-26T14:32:58.683Z,-0.81
2023-01-26T14:35:25.288Z,-0.81
2023-01-26T14:38:16.006Z,-0.81
2023-01-26T14:40:52.455Z,-0.81
2023-01-26T14:54:51.672Z,-0.48
2023-01-26T14:57:21.107Z,-0.49
2023-01-26T14:59:50.966Z,-0.60
2023-01-26T15:02:23.854Z,-0.71
2023-01-26T15:04:59.079Z,-0.77
2023-01-26T15:07:39.214Z,-0.80
2023-01-26T15:10:42.017Z,-0.87
2023-01-26T15:13:10.705Z,-0.92
2023-01-26T15:15:40.520Z,-0.94
2023-01-26T15:18:14.934Z,-1.00
2023-01-26T15:20:43.010Z,-1.04
2023-01-26T15:23:30.044Z,-1.07
2023-01-26T15:26:31.712Z,-1.12
2023-01-26T15:29:04.779Z,-1.22
2023-01-26T15:31:34.829Z,-1.28
2023-01-26T15:34:03.576Z,-1.31
2023-01-26T15:36:49.154Z,-1.31
2023-01-26T15:39:20.924Z,-1.29
2023-01-26T15:42:10.768Z,-1.32
2023-01-26T15:44:38.828Z,-1.33
2023-01-26T15:47:11.460Z,-1.32
2023-01-26T15:49:39.747Z,-1.34
2023-01-26T15:52:14.876Z,-1.41
2023-01-26T15:54:45.258Z,-1.42
2023-01-26T15:57:13.532Z,-1.47
2023-01-26T15:59:41.747Z,-1.53
2023-01-26T16:02:19.389Z,-1.57
2023-01-26T16:04:47.700Z,-1.60
2023-01-26T16:07:17.494Z,-1.61
2023-01-26T16:09:45.505Z,-1.62
2023-01-26T16:12:32.740Z,-1.62
2023-01-26T16:15:01.192Z,-1.63
2023-01-26T16:17:29.570Z,-1.66
2023-01-26T16:19:57.737Z,-1.70
2023-01-26T16:22:25.921Z,-1.74
2023-01-26T16:24:54.195Z,-1.73
2023-01-26T16:27:22.774Z,-1.64
2023-01-26T16:29:51.165Z,-1.54
2023-01-26T16:32:29.230Z,-1.50
2023-01-26T16:34:57.624Z,-1.51
2023-01-26T16:37:25.742Z,-1.50
2023-01-26T16:39:53.736Z,-1.49
2023-01-26T16:42:22.410Z,-1.51
2023-01-26T16:44:50.944Z,-1.51
2023-01-26T16:47:18.922Z,-1.49
2023-01-26T16:49:50.442Z,-1.46
2023-01-26T16:52:18.478Z,-1.39
2023-01-26T16:54:48.385Z,-1.33
2023-01-26T16:57:17.483Z,-1.27
2023-01-26T16:59:45.791Z,-1.21
2023-01-26T17:02:23.268Z,-1.15
2023-01-26T17:04:51.253Z,-1.15
2023-01-26T17:07:19.576Z,-1.16
2023-01-26T17:09:47.629Z,-1.16
2023-01-26T17:12:15.751Z,-1.12
2023-01-26T17:14:44.023Z,-1.15
2023-01-26T17:17:12.155Z,-1.19
2023-01-26T17:19:40.489Z,-1.21
2023-01-26T17:22:08.501Z,-1.23
2023-01-26T17:24:36.639Z,-1.20
2023-01-26T17:27:05.377Z,-1.19
2023-01-26T17:29:33.944Z,-1.17
2023-01-26T17:32:02.526Z,-1.16
2023-01-26T17:34:30.598Z,-1.12
2023-01-26T17:37:00.075Z,-1.11
2023-01-26T17:39:28.017Z,-1.10
2023-01-26T17:41:56.566Z,-1.04
2023-01-26T17:44:24.566Z,-1.00
2023-01-26T17:46:53.514Z,-0.97
2023-01-26T17:49:21.672Z,-0.98
2023-01-26T17:51:49.687Z,-0.99
2023-01-26T17:54:19.367Z,-1.02
2023-01-26T17:56:47.532Z,-1.12
2023-01-26T17:59:15.675Z,-1.20
2023-01-26T18:01:43.708Z,-1.29
2023-01-26T18:04:11.755Z,-1.36
2023-01-26T20:07:07.687Z,-2.62
2023-01-26T20:09:36.020Z,-2.67
2023-01-26T20:23:54.902Z,-2.17
2023-01-26T20:26:26.871Z,-2.31
2023-01-26T20:28:57.936Z,-2.45
2023-01-26T20:31:26.639Z,-2.53
2023-01-26T20:33:58.567Z,-2.55
2023-01-26T20:36:27.857Z,-2.55
2023-01-26T20:38:55.829Z,-2.56
2023-01-26T20:41:27.512Z,-2.57
2023-01-26T20:44:00.463Z,-2.58
2023-01-26T20:46:32.550Z,-2.61
2023-01-26T20:49:00.764Z,-2.57
2023-01-26T20:51:31.267Z,-2.50
2023-01-26T20:53:59.525Z,-2.40
2023-01-26T20:56:27.632Z,-2.37
2023-01-26T20:58:56.022Z,-2.35
2023-01-26T21:01:24.131Z,-2.26
2023-01-26T21:03:52.398Z,-2.23
2023-01-26T21:06:20.982Z,-2.24
2023-01-26T21:08:49.617Z,-2.13
2023-01-26T21:11:23.411Z,-2.07
2023-01-26T21:13:54.636Z,-2.09
2023-01-26T21:16:23.571Z,-2.09
2023-01-26T21:18:52.305Z,-2.10
2023-01-26T21:21:21.810Z,-2.12
2023-01-26T21:23:50.763Z,-2.13
2023-01-26T21:26:22.365Z,-2.20
2023-01-26T21:28:52.106Z,-2.30
2023-01-26T21:31:21.344Z,-2.34
2023-01-26T21:33:49.751Z,-2.37
2023-01-26T21:36:20.381Z,-2.40
2023-01-26T21:38:50.893Z,-2.39
2023-01-26T21:41:55.878Z,-2.36
2023-01-26T21:44:25.173Z,-2.27
2023-01-26T21:47:01.220Z,-2.21
2023-01-26T21:49:29.555Z,-2.22
2023-01-26T21:52:17.651Z,-2.22
2023-01-26T21:54:46.317Z,-2.22
2023-01-26T21:57:33.040Z,-2.21
2023-01-26T22:00:03.765Z,-2.15
2023-01-26T22:02:32.996Z,-2.14
2023-01-26T22:05:01.211Z,-2.12
2023-01-26T22:07:32.276Z,-2.00
2023-01-26T22:10:00.497Z,-1.92
2023-01-26T22:21:33.492Z,-2.18
2023-01-26T22:24:01.630Z,-2.25
2023-01-26T22:26:30.548Z,-2.23
2023-01-26T22:29:00.259Z,-2.18
2023-01-26T22:31:29.128Z,-2.20
2023-01-26T22:33:58.244Z,-2.26
2023-01-26T22:36:27.065Z,-2.30
2023-01-26T22:38:55.310Z,-2.35
2023-01-26T22:41:25.221Z,-2.40
2023-01-26T22:43:55.220Z,-2.41
2023-01-26T22:46:24.119Z,-2.41
2023-01-26T22:48:52.267Z,-2.43
2023-01-26T22:51:22.319Z,-2.47
2023-01-26T22:53:51.557Z,-2.47
2023-01-26T22:56:20.132Z,-2.43
2023-01-26T22:59:00.140Z,-2.42
2023-01-26T23:01:29.991Z,-2.38
2023-01-26T23:03:59.078Z,-2.32
2023-01-26T23:06:27.685Z,-2.32
2023-01-26T23:09:01.173Z,-2.30
2023-01-26T23:11:30.749Z,-2.30
2023-01-26T23:13:59.109Z,-2.30
2023-01-26T23:16:27.649Z,-2.24
2023-01-26T23:18:56.837Z,-2.15
2023-01-26T23:21:25.256Z,-2.08
2023-01-26T23:23:53.349Z,-2.01
2023-01-26T23:26:21.523Z,-2.05
2023-01-26T23:28:49.519Z,-2.12
2023-01-26T23:31:18.555Z,-2.10
2023-01-26T23:33:46.895Z,-2.06
2023-01-26T23:36:16.727Z,-2.00
2023-01-26T23:38:45.869Z,-1.92
2023-01-26T23:41:14.468Z,-1.84
2023-01-26T23:43:42.519Z,-1.86
2023-01-26T23:46:11.430Z,-1.86
2023-01-26T23:48:39.419Z,-1.84
2023-01-26T23:51:09.209Z,-1.86
2023-01-26T23:53:38.048Z,-1.83
2023-01-26T23:56:08.814Z,-1.77
2023-01-26T23:58:37.667Z,-1.79
